Time;durP1;ratioP1;P1;durP2;ratioP2;P2;SDS_P1;SDS_P2;PMS_P1;PMS_P2;Temp;Humidity;BMP_temperature;BMP_pressure;BME280_temperature;BME280_humidity;BME280_pressure;Samples;Min_cycle;Max_cycle;Signal;HPM_P1;HPM_P2
2021/10/17 00:01:39;;;;;;;;;;;;;;;9.84;88.96;99756.47;5012440;28;577;-58
2021/10/17 00:04:06;;;;;;;;;;;;;;;9.82;89.12;99756.09;5012317;28;854;-59
2021/10/17 00:06:33;;;;;;;;;;;;;;;9.79;88.68;99754.91;5012240;28;885;-59
2021/10/17 00:09:00;;;;;;;;;;;;;;;9.81;88.81;99754.50;5012251;28;802;-58
2021/10/17 00:11:26;;;;;;;;;;;;;;;9.84;88.64;99762.00;5012072;28;1103;-59
2021/10/17 00:13:52;;;;;;;;;;;;;;;9.87;88.28;99752.13;5012152;28;1890;-58
2021/10/17 00:16:18;;;;;;;;;;;;;;;9.89;88.07;99755.28;5012191;28;1073;-59
2021/10/17 00:18:45;;;;;;;;;;;;;;;9.91;87.84;99753.69;5012028;28;862;-58
2021/10/17 00:21:12;;;;;;;;;;;;;;;9.93;88.02;99756.06;5012054;28;827;-58
2021/10/17 00:23:39;;;;;;;;;;;;;;;9.95;87.54;99750.91;4994578;28;879;-58
2021/10/17 00:26:05;;;;;;;;;;;;;;;9.99;87.40;99758.00;4994235;28;873;-58
2021/10/17 00:28:33;;;;;;;;;;;;;;;10.00;87.17;99756.81;5011970;28;897;-58
2021/10/17 00:30:59;;;;;;;;;;;;;;;10.01;86.49;99750.09;5011882;28;969;-58
2021/10/17 00:33:26;;;;;;;;;;;;;;;10.02;86.23;99767.47;5011803;28;1890;-59
2021/10/17 00:35:52;;;;;;;;;;;;;;;10.00;86.50;99762.31;5011846;28;890;-59
2021/10/17 00:38:19;;;;;;;;;;;;;;;9.98;86.29;99759.19;5011811;28;890;-59
2021/10/17 00:40:46;;;;;;;;;;;;;;;9.97;86.34;99770.63;5011408;28;1428;-59
2021/10/17 00:43:13;;;;;;;;;;;;;;;9.95;86.56;99778.53;5011836;28;823;-59
2021/10/17 00:45:39;;;;;;;;;;;;;;;9.93;86.28;99764.34;5011860;28;835;-59
2021/10/17 00:48:05;;;;;;;;;;;;;;;9.90;86.67;99770.63;5011603;28;865;-59
2021/10/17 00:50:33;;;;;;;;;;;;;;;9.88;86.33;99765.53;5011757;28;803;-59
2021/10/17 00:53:00;;;;;;;;;;;;;;;9.84;86.38;99773.03;5011919;28;1906;-59
2021/10/17 00:55:28;;;;;;;;;;;;;;;9.78;86.84;99772.66;5011694;28;862;-59
2021/10/17 00:57:55;;;;;;;;;;;;;;;9.71;87.55;99774.66;5011463;28;899;-59
2021/10/17 01:00:22;;;;;;;;;;;;;;;9.66;87.51;99764.00;5011586;28;928;-59
2021/10/17 01:02:49;;;;;;;;;;;;;;;9.51;88.07;99775.03;5011595;28;547;-59
2021/10/17 01:05:16;;;;;;;;;;;;;;;9.30;89.31;99770.34;5011495;28;886;-59
2021/10/17 01:07:44;;;;;;;;;;;;;;;9.17;90.48;99771.91;5011620;28;846;-60
2021/10/17 01:10:12;;;;;;;;;;;;;;;9.12;90.62;99758.53;5015439;28;838;-59
2021/10/17 01:12:39;;;;;;;;;;;;;;;9.15;90.72;99768.75;5015487;28;859;-60
2021/10/17 01:15:06;;;;;;;;;;;;;;;9.18;90.61;99765.22;5015247;28;1890;-59
2021/10/17 01:17:35;;;;;;;;;;;;;;;9.17;90.79;99761.69;5015729;28;874;-59
2021/10/17 01:20:02;;;;;;;;;;;;;;;9.23;90.55;99775.84;5015312;28;873;-59
2021/10/17 01:22:29;;;;;;;;;;;;;;;9.23;90.36;99758.53;5015348;28;804;-60
2021/10/17 01:24:56;;;;;;;;;;;;;;;9.25;90.22;99772.72;5015250;28;1196;-58
2021/10/17 01:27:22;;;;;;;;;;;;;;;9.26;89.97;99768.75;5015141;28;865;-59
2021/10/17 01:29:49;;;;;;;;;;;;;;;9.28;90.15;99766.41;5015176;28;820;-59
2021/10/17 01:32:16;;;;;;;;;;;;;;;9.30;89.77;99777.81;5015045;28;912;-59
2021/10/17 01:34:43;;;;;;;;;;;;;;;9.31;89.83;99769.16;5014973;28;1910;-59
2021/10/17 01:37:08;;;;;;;;;;;;;;;9.33;89.47;99780.59;5014961;28;875;-58
2021/10/17 01:39:35;;;;;;;;;;;;;;;9.39;89.04;99778.22;5014862;28;983;-58
2021/10/17 01:42:01;;;;;;;;;;;;;;;9.39;89.00;99767.19;5014765;28;1315;-59
2021/10/17 01:44:29;;;;;;;;;;;;;;;9.40;88.83;99777.03;5014906;28;819;-59
2021/10/17 01:46:56;;;;;;;;;;;;;;;9.41;88.58;99775.88;5015103;28;885;-59
2021/10/17 01:49:25;;;;;;;;;;;;;;;9.44;88.27;99777.03;5014826;28;554;-59
2021/10/17 01:51:51;;;;;;;;;;;;;;;9.47;87.80;99779.00;5014862;28;862;-58
2021/10/17 01:54:18;;;;;;;;;;;;;;;9.49;87.51;99793.97;5014580;28;1914;-58
2021/10/17 01:56:44;;;;;;;;;;;;;;;9.48;87.31;99786.88;5014613;28;865;-59
2021/10/17 01:59:11;;;;;;;;;;;;;;;9.49;87.17;99779.41;5014630;28;901;-58
2021/10/17 02:01:37;;;;;;;;;;;;;;;9.52;87.08;99782.16;5014575;28;910;-59
2021/10/17 02:04:04;;;;;;;;;;;;;;;9.52;87.16;99795.16;5014560;28;886;-59
2021/10/17 02:06:31;;;;;;;;;;;;;;;9.53;87.12;99789.25;5014475;28;819;-59
2021/10/17 02:08:57;;;;;;;;;;;;;;;9.52;87.05;99778.63;5014490;28;834;-58
2021/10/17 02:11:24;;;;;;;;;;;;;;;9.48;87.65;99783.34;5014458;28;800;-59
2021/10/17 02:13:51;;;;;;;;;;;;;;;9.46;87.35;99805.81;5014323;28;1914;-58
2021/10/17 02:16:18;;;;;;;;;;;;;;;9.45;87.83;99797.91;5014284;28;944;-58
2021/10/17 02:18:43;;;;;;;;;;;;;;;9.43;87.89;99792.81;5014203;28;823;-58
2021/10/17 02:21:10;;;;;;;;;;;;;;;9.39;88.11;99781.00;5013764;28;823;-58
2021/10/17 02:23:37;;;;;;;;;;;;;;;9.35;88.26;99800.28;5014189;28;878;-58
2021/10/17 02:26:03;;;;;;;;;;;;;;;9.32;88.36;99811.31;5013971;28;1020;-58
2021/10/17 02:28:30;;;;;;;;;;;;;;;9.29;87.95;99796.34;5014084;28;874;-58
2021/10/17 02:30:56;;;;;;;;;;;;;;;9.28;88.09;99794.78;4996524;28;1626;-58
2021/10/17 02:33:23;;;;;;;;;;;;;;;9.25;87.77;99817.63;5014133;28;1890;-58
2021/10/17 02:35:50;;;;;;;;;;;;;;;9.22;87.41;99823.94;5013936;28;878;-58
2021/10/17 02:38:16;;;;;;;;;;;;;;;9.20;87.24;99812.50;5013953;28;823;-58
2021/10/17 02:40:43;;;;;;;;;;;;;;;9.20;87.07;99816.03;5013602;28;1228;-58
2021/10/17 02:43:09;;;;;;;;;;;;;;;9.17;86.58;99825.13;5013824;28;839;-58
2021/10/17 02:45:36;;;;;;;;;;;;;;;9.16;86.68;99831.81;4996231;28;835;-58
2021/10/17 02:48:03;;;;;;;;;;;;;;;9.15;86.51;99834.94;5013811;28;854;-58
2021/10/17 02:50:29;;;;;;;;;;;;;;;9.12;86.36;99836.50;5013685;28;855;-58
2021/10/17 02:52:56;;;;;;;;;;;;;;;9.12;86.21;99839.28;5013737;28;1983;-58
2021/10/17 02:55:23;;;;;;;;;;;;;;;9.11;86.31;99831.38;5013613;28;803;-58
2021/10/17 02:57:50;;;;;;;;;;;;;;;9.08;86.11;99851.47;5013744;28;815;-58
2021/10/17 03:00:17;;;;;;;;;;;;;;;9.05;86.29;99850.31;5013574;28;922;-58
2021/10/17 03:02:44;;;;;;;;;;;;;;;9.01;86.08;99832.97;5013541;28;958;-58
2021/10/17 03:05:10;;;;;;;;;;;;;;;9.01;85.92;99837.69;4996187;28;1021;-58
2021/10/17 03:07:36;;;;;;;;;;;;;;;8.98;85.86;99858.53;5013594;28;883;-59
2021/10/17 03:10:04;;;;;;;;;;;;;;;8.98;85.92;99866.81;5014097;28;847;-58
2021/10/17 03:12:31;;;;;;;;;;;;;;;8.97;85.74;99857.75;4995890;28;1526;-59
2021/10/17 03:14:57;;;;;;;;;;;;;;;8.97;85.77;99866.03;5013801;28;1882;-59
2021/10/17 03:17:24;;;;;;;;;;;;;;;8.97;85.95;99870.75;5013561;28;915;-59
2021/10/17 03:19:52;;;;;;;;;;;;;;;8.97;86.04;99876.28;5013509;28;800;-59
2021/10/17 03:22:18;;;;;;;;;;;;;;;8.97;86.12;99888.06;5013486;28;748;-59
2021/10/17 03:24:45;;;;;;;;;;;;;;;8.96;85.69;99888.47;5013624;28;823;-59
2021/10/17 03:27:12;;;;;;;;;;;;;;;8.95;85.99;99884.91;5013236;28;839;-59
2021/10/17 03:29:39;;;;;;;;;;;;;;;8.98;85.79;99895.19;5013495;28;919;-59
2021/10/17 03:32:05;;;;;;;;;;;;;;;9.01;85.83;99896.38;5012167;28;855;-59
2021/10/17 03:34:32;;;;;;;;;;;;;;;8.97;86.13;99890.84;5012791;28;1919;-59
2021/10/17 03:36:58;;;;;;;;;;;;;;;8.93;86.18;99905.78;5012774;28;891;-59
2021/10/17 03:39:25;;;;;;;;;;;;;;;8.88;86.04;99898.69;5012777;28;890;-59
2021/10/17 03:41:51;;;;;;;;;;;;;;;8.88;85.99;99897.91;5012553;28;1282;-59
2021/10/17 03:44:18;;;;;;;;;;;;;;;8.82;86.35;99905.75;5012729;28;894;-59
2021/10/17 03:46:45;;;;;;;;;;;;;;;8.77;86.70;99912.44;5012616;28;937;-59
2021/10/17 03:49:12;;;;;;;;;;;;;;;8.72;87.00;99909.25;5012529;28;862;-59
2021/10/17 03:51:38;;;;;;;;;;;;;;;8.69;87.03;99913.56;5012617;28;827;-59
2021/10/17 03:54:05;;;;;;;;;;;;;;;8.66;87.14;99910.78;5012305;28;1910;-59
2021/10/17 03:56:31;;;;;;;;;;;;;;;8.63;87.52;99915.13;5012543;28;835;-59
2021/10/17 03:58:58;;;;;;;;;;;;;;;8.61;87.87;99919.44;5012613;28;854;-59
2021/10/17 04:01:25;;;;;;;;;;;;;;;8.56;87.62;99915.88;5012405;28;902;-58
2021/10/17 04:03:52;;;;;;;;;;;;;;;8.55;87.64;99922.53;5012290;28;926;-59
2021/10/17 04:06:18;;;;;;;;;;;;;;;8.54;87.87;99909.19;4994629;28;930;-59
2021/10/17 04:08:45;;;;;;;;;;;;;;;8.53;87.54;99929.63;5012335;28;815;-59
2021/10/17 04:11:12;;;;;;;;;;;;;;;8.52;87.74;99926.09;5012108;28;888;-59
2021/10/17 04:13:39;;;;;;;;;;;;;;;8.50;87.95;99922.94;5012150;28;1890;-59
2021/10/17 04:16:06;;;;;;;;;;;;;;;8.48;88.17;99921.75;5012004;28;1275;-59
2021/10/17 04:18:32;;;;;;;;;;;;;;;8.46;88.11;99922.13;5012146;28;874;-58
2021/10/17 04:20:59;;;;;;;;;;;;;;;8.46;88.07;99918.56;5012076;28;910;-59
2021/10/17 04:23:25;;;;;;;;;;;;;;;8.41;88.06;99910.66;5012203;28;901;-59
2021/10/17 04:25:52;;;;;;;;;;;;;;;8.36;88.06;99914.53;5012074;28;983;-59
2021/10/17 04:28:19;;;;;;;;;;;;;;;8.33;88.45;99913.34;5011959;28;938;-59
2021/10/17 04:30:46;;;;;;;;;;;;;;;8.30;88.17;99896.81;5012154;28;917;-59
2021/10/17 04:33:12;;;;;;;;;;;;;;;8.27;88.52;99908.59;5011867;28;1946;-59
2021/10/17 04:35:39;;;;;;;;;;;;;;;8.24;88.62;99901.13;5011970;28;812;-59
2021/10/17 04:38:07;;;;;;;;;;;;;;;8.20;88.78;99920.34;5011905;28;897;-59
2021/10/17 04:40:35;;;;;;;;;;;;;;;8.20;89.09;99908.56;4993998;28;1584;-59
2021/10/17 04:43:02;;;;;;;;;;;;;;;8.16;88.93;99914.03;5011416;28;867;-59
2021/10/17 04:45:28;;;;;;;;;;;;;;;8.14;88.81;99900.66;5011818;28;819;-59
2021/10/17 04:47:55;;;;;;;;;;;;;;;8.16;88.93;99914.03;5011628;28;922;-59
2021/10/17 04:50:22;;;;;;;;;;;;;;;8.17;88.51;99916.41;5011766;28;874;-58
2021/10/17 04:52:49;;;;;;;;;;;;;;;8.20;87.95;99908.56;4994015;28;1519;-59
2021/10/17 04:55:15;;;;;;;;;;;;;;;8.25;87.61;99908.19;5011600;28;1902;-59
2021/10/17 04:57:41;;;;;;;;;;;;;;;8.28;86.95;99910.16;5011742;28;811;-59
2021/10/17 05:00:08;;;;;;;;;;;;;;;8.32;86.41;99905.47;4993966;28;1502;-59
2021/10/17 05:02:35;;;;;;;;;;;;;;;8.37;85.76;99908.66;5011586;28;950;-59
2021/10/17 05:05:01;;;;;;;;;;;;;;;8.38;85.65;99902.00;5011639;28;780;-59
2021/10/17 05:07:27;;;;;;;;;;;;;;;8.43;85.60;99909.13;5011578;28;1010;-59
2021/10/17 05:09:53;;;;;;;;;;;;;;;8.45;85.36;99909.53;5011613;28;819;-59
2021/10/17 05:17:29;;;;;;;;;;;;;;;8.61;84.40;99922.97;5729222;23;1699;-62
2021/10/17 05:19:56;;;;;;;;;;;;;;;8.68;83.78;99924.97;5011547;28;818;-61
2021/10/17 05:22:22;;;;;;;;;;;;;;;8.75;83.63;99923.06;5011463;28;858;-62
2021/10/17 05:24:48;;;;;;;;;;;;;;;8.85;83.10;99940.00;4993882;28;1327;-61
2021/10/17 05:27:14;;;;;;;;;;;;;;;8.90;82.83;99929.41;5011388;28;814;-62
2021/10/17 05:29:41;;;;;;;;;;;;;;;8.96;82.01;99938.91;5011412;28;795;-61
2021/10/17 05:32:08;;;;;;;;;;;;;;;9.02;81.37;99935.75;5011342;28;827;-62
2021/10/17 05:34:35;;;;;;;;;;;;;;;9.08;81.23;99950.75;5011316;28;1976;-62
2021/10/17 05:37:02;;;;;;;;;;;;;;;9.11;80.61;99939.72;5011300;28;863;-62
2021/10/17 05:39:28;;;;;;;;;;;;;;;9.15;80.37;99970.88;5011381;28;894;-62
2021/10/17 05:41:55;;;;;;;;;;;;;;;9.16;80.55;99969.69;5011412;28;830;-62
2021/10/17 05:44:22;;;;;;;;;;;;;;;9.19;80.12;99966.13;4993653;28;839;-61
2021/10/17 05:46:48;;;;;;;;;;;;;;;9.23;79.55;99966.16;5011180;28;862;-62
2021/10/17 05:49:14;;;;;;;;;;;;;;;9.30;79.35;99984.69;5011169;28;842;-61
2021/10/17 05:51:41;;;;;;;;;;;;;;;9.33;78.71;99981.94;5011208;28;850;-63
2021/10/17 05:54:07;;;;;;;;;;;;;;;9.42;79.11;99986.31;5011106;28;1949;-62
2021/10/17 05:56:34;;;;;;;;;;;;;;;9.44;78.42;99993.00;5013726;28;866;-61
2021/10/17 05:59:01;;;;;;;;;;;;;;;9.47;78.31;99988.69;5014634;28;831;-62
2021/10/17 06:01:28;;;;;;;;;;;;;;;9.51;78.61;99972.91;5014697;28;827;-62
2021/10/17 06:03:54;;;;;;;;;;;;;;;9.55;78.11;99996.59;5014514;28;897;-62
2021/10/17 06:06:20;;;;;;;;;;;;;;;9.59;77.81;100013.94;5014544;28;858;-62
2021/10/17 06:08:47;;;;;;;;;;;;;;;9.61;77.64;100025.38;5014476;28;835;-62
2021/10/17 06:11:14;;;;;;;;;;;;;;;9.65;77.97;100017.13;5014601;28;898;-62
2021/10/17 06:13:40;;;;;;;;;;;;;;;9.73;77.56;100028.94;5014424;28;1949;-62
2021/10/17 06:16:07;;;;;;;;;;;;;;;9.86;77.68;100024.66;5014225;28;900;-62
2021/10/17 06:18:34;;;;;;;;;;;;;;;9.90;76.83;100036.50;5014129;28;1460;-62
2021/10/17 06:21:02;;;;;;;;;;;;;;;9.87;77.06;100037.25;5014278;28;815;-62
2021/10/17 06:23:28;;;;;;;;;;;;;;;9.97;77.46;100039.25;5014229;28;1029;-62
2021/10/17 06:25:55;;;;;;;;;;;;;;;10.07;76.76;100058.97;5014084;28;892;-62
2021/10/17 06:28:22;;;;;;;;;;;;;;;10.04;76.54;100054.25;5014490;28;787;-62
2021/10/17 06:30:48;;;;;;;;;;;;;;;10.16;77.19;100056.63;5014072;28;795;-62
2021/10/17 06:33:15;;;;;;;;;;;;;;;10.23;77.36;100059.41;5013952;28;1977;-62
2021/10/17 06:35:42;;;;;;;;;;;;;;;10.20;76.88;100063.75;5013987;28;874;-62
2021/10/17 06:38:09;;;;;;;;;;;;;;;10.25;77.10;100065.31;5013903;28;858;-62
2021/10/17 06:40:36;;;;;;;;;;;;;;;10.28;76.94;100069.25;5013860;28;916;-62
2021/10/17 06:43:03;;;;;;;;;;;;;;;10.24;76.68;100069.25;5013881;28;846;-62
2021/10/17 06:45:29;;;;;;;;;;;;;;;10.21;77.31;100064.53;5013734;28;811;-62
2021/10/17 06:47:55;;;;;;;;;;;;;;;10.20;77.60;100062.97;5013808;28;841;-62
2021/10/17 06:50:21;;;;;;;;;;;;;;;10.20;77.76;100085.06;5014138;28;799;-62
2021/10/17 06:52:49;;;;;;;;;;;;;;;10.16;77.36;100087.03;5013947;28;811;-62
2021/10/17 06:55:16;;;;;;;;;;;;;;;10.28;77.64;100089.38;5013773;28;1895;-63
2021/10/17 06:57:44;;;;;;;;;;;;;;;10.38;77.31;100088.63;5013849;28;867;-62
2021/10/17 07:00:11;;;;;;;;;;;;;;;10.32;77.01;100086.66;5013727;28;881;-62
2021/10/17 07:02:37;;;;;;;;;;;;;;;10.32;77.29;100076.41;5013485;28;819;-62
2021/10/17 07:05:04;;;;;;;;;;;;;;;10.25;77.22;100092.94;5013540;28;830;-62
2021/10/17 07:07:32;;;;;;;;;;;;;;;10.32;77.30;100095.72;5013331;28;807;-62
2021/10/17 07:09:59;;;;;;;;;;;;;;;10.37;77.97;100100.88;5013336;28;886;-62
2021/10/17 07:12:26;;;;;;;;;;;;;;;10.43;77.47;100112.31;5010728;28;1387;-63
2021/10/17 07:14:53;;;;;;;;;;;;;;;10.54;78.12;100104.03;5013243;28;1955;-62
2021/10/17 07:17:20;;;;;;;;;;;;;;;10.59;77.66;100106.41;5013528;28;1042;-62
2021/10/17 07:19:46;;;;;;;;;;;;;;;10.61;76.50;100101.28;5013055;28;1498;-62
2021/10/17 07:22:13;;;;;;;;;;;;;;;10.52;76.52;100109.16;5013236;28;803;-62
2021/10/17 07:24:39;;;;;;;;;;;;;;;10.51;76.36;100108.38;5013224;28;849;-63
2021/10/17 07:27:05;;;;;;;;;;;;;;;10.53;77.23;100106.00;5013348;28;806;-62
2021/10/17 07:29:32;;;;;;;;;;;;;;;10.69;78.24;100102.06;5013627;28;858;-62
2021/10/17 07:31:59;;;;;;;;;;;;;;;10.83;77.67;100100.06;5013017;28;815;-62
2021/10/17 07:34:26;;;;;;;;;;;;;;;10.85;77.04;100093.38;5013153;28;1910;-62
2021/10/17 07:36:53;;;;;;;;;;;;;;;10.94;76.58;100096.50;5013207;28;874;-63
2021/10/17 07:39:19;;;;;;;;;;;;;;;11.00;76.41;100089.38;5012842;28;807;-62
2021/10/17 07:41:48;;;;;;;;;;;;;;;11.02;76.01;100098.06;5012873;28;810;-62
2021/10/17 07:44:15;;;;;;;;;;;;;;;11.04;75.62;100090.16;5013112;28;854;-62
2021/10/17 07:46:42;;;;;;;;;;;;;;;11.00;75.57;100084.63;4995322;28;1343;-63
2021/10/17 07:49:08;;;;;;;;;;;;;;;10.91;75.83;100089.78;5013420;28;748;-62
2021/10/17 07:51:35;;;;;;;;;;;;;;;10.91;75.58;100086.25;5012736;28;823;-62
2021/10/17 07:54:02;;;;;;;;;;;;;;;10.95;75.77;100087.81;5013350;28;1882;-63
2021/10/17 07:56:28;;;;;;;;;;;;;;;11.07;75.38;100094.09;4995134;28;1380;-62
2021/10/17 07:58:55;;;;;;;;;;;;;;;11.17;75.03;100101.59;5012495;28;858;-63
2021/10/17 08:01:21;;;;;;;;;;;;;;;11.20;74.83;100098.00;5012400;28;803;-62
2021/10/17 08:03:48;;;;;;;;;;;;;;;11.20;73.95;100100.78;5012320;28;877;-62
2021/10/17 08:06:15;;;;;;;;;;;;;;;11.24;74.39;100102.38;5012380;28;881;-63
2021/10/17 08:08:41;;;;;;;;;;;;;;;11.27;74.56;100103.53;5012291;28;854;-62
2021/10/17 08:11:08;;;;;;;;;;;;;;;11.31;74.15;100086.91;5012236;28;854;-63
2021/10/17 08:13:35;;;;;;;;;;;;;;;11.35;73.52;100109.84;4994595;28;1890;-62
2021/10/17 08:16:01;;;;;;;;;;;;;;;11.48;74.09;100105.47;5012117;28;1007;-63
2021/10/17 08:18:28;;;;;;;;;;;;;;;11.52;73.41;100102.66;5011441;28;1248;-62
2021/10/17 08:20:54;;;;;;;;;;;;;;;11.59;73.57;100094.34;5012130;28;869;-62
2021/10/17 08:23:21;;;;;;;;;;;;;;;11.60;72.65;100102.22;5012108;28;807;-62
2021/10/17 08:25:47;;;;;;;;;;;;;;;11.48;72.89;100085.28;5011993;28;796;-63
2021/10/17 08:28:14;;;;;;;;;;;;;;;11.51;73.21;100087.25;5012106;28;771;-62
2021/10/17 08:30:44;;;;;;;;;;;;;;;11.55;73.06;100088.03;4994341;28;1252;-62
2021/10/17 08:33:10;;;;;;;;;;;;;;;11.46;72.76;100077.38;5011952;28;1965;-62
2021/10/17 08:35:37;;;;;;;;;;;;;;;11.55;73.07;100094.34;5011874;28;791;-62
2021/10/17 08:38:04;;;;;;;;;;;;;;;11.52;72.94;100067.47;5011937;28;862;-62
2021/10/17 08:40:30;;;;;;;;;;;;;;;11.53;72.81;100073.81;5011757;28;864;-62
2021/10/17 08:42:57;;;;;;;;;;;;;;;11.55;73.78;100074.97;5011851;28;839;-62
2021/10/17 08:45:24;;;;;;;;;;;;;;;11.53;73.04;100079.34;4994099;28;1276;-62
2021/10/17 08:47:52;;;;;;;;;;;;;;;11.52;73.03;100074.97;5011772;28;804;-63
2021/10/17 08:50:18;;;;;;;;;;;;;;;11.58;73.51;100078.91;5012067;28;783;-62
2021/10/17 08:52:45;;;;;;;;;;;;;;;11.66;73.50;100077.69;5011705;28;874;-62
2021/10/17 08:55:12;;;;;;;;;;;;;;;11.71;72.70;100079.25;5011743;28;1890;-62
2021/10/17 08:57:39;;;;;;;;;;;;;;;11.74;73.11;100072.91;5011685;28;847;-63
2021/10/17 09:00:23;;;;;;;;;;;;;;;11.65;73.13;100079.66;5011666;28;815;-62
2021/10/17 09:02:50;;;;;;;;;;;;;;;11.69;73.26;100085.16;5011676;28;810;-62
2021/10/17 09:05:31;;;;;;;;;;;;;;;11.63;72.43;100081.28;5011654;28;901;-62
2021/10/17 09:07:58;;;;;;;;;;;;;;;11.66;72.39;100083.22;5011703;28;814;-62
2021/10/17 09:10:24;;;;;;;;;;;;;;;11.75;72.32;100086.34;5011640;28;790;-62
2021/10/17 09:12:51;;;;;;;;;;;;;;;11.74;72.38;100081.22;5011469;28;898;-62
2021/10/17 09:15:18;;;;;;;;;;;;;;;11.80;71.88;100077.63;5011485;28;1886;-62
2021/10/17 09:18:03;;;;;;;;;;;;;;;11.76;71.95;100076.84;5011621;28;1345;-62
2021/10/17 09:20:30;;;;;;;;;;;;;;;11.85;72.49;100079.16;5012225;28;791;-62
2021/10/17 09:23:00;;;;;;;;;;;;;;;11.90;71.00;100080.75;4994154;28;1225;-62
2021/10/17 09:25:32;;;;;;;;;;;;;;;11.91;71.37;100085.91;4993791;28;1303;-62
2021/10/17 09:27:59;;;;;;;;;;;;;;;12.08;71.65;100088.94;5011433;28;807;-62
2021/10/17 09:30:26;;;;;;;;;;;;;;;12.21;71.45;100090.06;5014129;28;869;-62
2021/10/17 09:33:09;;;;;;;;;;;;;;;12.22;70.20;100099.94;5015243;28;834;-62
2021/10/17 09:35:36;;;;;;;;;;;;;;;12.24;70.58;100103.09;5015212;28;810;-62
2021/10/17 09:38:04;;;;;;;;;;;;;;;12.38;70.31;100107.75;5015323;28;862;-62
2021/10/17 09:40:33;;;;;;;;;;;;;;;12.34;70.20;100116.09;5015144;28;823;-62
2021/10/17 09:43:02;;;;;;;;;;;;;;;12.43;69.11;100116.41;5014813;28;811;-62
2021/10/17 09:45:29;;;;;;;;;;;;;;;12.38;69.22;100129.94;5015156;28;799;-62
2021/10/17 09:47:56;;;;;;;;;;;;;;;12.43;69.90;100121.94;5014899;28;874;-63
2021/10/17 09:50:23;;;;;;;;;;;;;;;12.51;69.64;100133.00;4997198;28;1235;-63
2021/10/17 09:53:07;;;;;;;;;;;;;;;12.57;69.40;100123.06;4997164;28;888;-62
2021/10/17 09:55:34;;;;;;;;;;;;;;;12.38;69.69;100133.50;5014861;28;826;-63
2021/10/17 09:58:04;;;;;;;;;;;;;;;12.52;69.44;100131.81;5014786;28;854;-62
2021/10/17 10:00:36;;;;;;;;;;;;;;;12.52;69.75;100140.13;5014650;28;841;-62
2021/10/17 10:03:02;;;;;;;;;;;;;;;12.65;70.21;100128.13;5014532;28;866;-62
2021/10/17 10:05:29;;;;;;;;;;;;;;;12.80;69.52;100128.81;5014555;28;807;-63
2021/10/17 10:08:03;;;;;;;;;;;;;;;12.90;68.53;100131.88;5014811;28;795;-63
2021/10/17 10:10:31;;;;;;;;;;;;;;;13.04;68.35;100121.44;5014428;28;783;-62
2021/10/17 10:13:01;;;;;;;;;;;;;;;12.92;66.72;100123.94;5014419;28;827;-62
2021/10/17 10:15:29;;;;;;;;;;;;;;;12.97;67.59;100118.75;5014747;28;1955;-62
2021/10/17 10:17:57;;;;;;;;;;;;;;;13.13;66.88;100117.41;5014271;28;1183;-62
2021/10/17 10:20:24;;;;;;;;;;;;;;;13.14;66.83;100113.41;5014605;28;838;-63
2021/10/17 10:22:52;;;;;;;;;;;;;;;13.12;66.77;100110.25;5014231;28;792;-62
2021/10/17 10:25:19;;;;;;;;;;;;;;;13.10;66.76;100116.25;5014275;28;799;-63
2021/10/17 10:27:47;;;;;;;;;;;;;;;13.14;66.71;100114.19;5014101;28;893;-62
2021/10/17 10:30:25;;;;;;;;;;;;;;;13.24;66.51;100118.06;5014282;28;914;-63
2021/10/17 10:33:13;;;;;;;;;;;;;;;13.63;67.60;100111.28;4996438;28;1489;-63
2021/10/17 10:35:57;;;;;;;;;;;;;;;13.99;65.17;100110.81;5013989;28;850;-62
2021/10/17 10:38:43;;;;;;;;;;;;;;;13.71;64.58;100107.22;5014269;28;830;-62
2021/10/17 10:41:17;;;;;;;;;;;;;;;13.52;65.78;100128.09;5011855;28;1058;-62
2021/10/17 10:43:44;;;;;;;;;;;;;;;13.48;65.95;100114.25;5013732;28;879;-62
2021/10/17 10:46:10;;;;;;;;;;;;;;;13.58;65.93;100115.31;5013821;28;877;-62
2021/10/17 10:48:47;;;;;;;;;;;;;;;13.50;65.73;100102.72;5013800;28;866;-62
2021/10/17 10:51:32;;;;;;;;;;;;;;;13.60;66.80;100095.47;5013540;28;858;-62
2021/10/17 10:53:59;;;;;;;;;;;;;;;13.78;64.89;100101.56;5013688;28;1874;-62
2021/10/17 10:56:41;;;;;;;;;;;;;;;13.62;64.36;100093.06;5013735;28;798;-62
2021/10/17 10:59:08;;;;;;;;;;;;;;;13.25;64.98;100084.34;4995958;28;1324;-62
2021/10/17 11:01:54;;;;;;;;;;;;;;;13.13;66.16;100076.56;5013576;28;854;-62
2021/10/17 11:04:41;;;;;;;;;;;;;;;13.15;65.86;100079.69;5013473;28;819;-62
2021/10/17 11:07:19;;;;;;;;;;;;;;;13.15;66.84;100073.38;5013389;28;869;-62
2021/10/17 11:09:46;;;;;;;;;;;;;;;13.15;66.19;100081.69;5013491;28;791;-62
2021/10/17 11:12:31;;;;;;;;;;;;;;;12.97;66.67;100073.53;5013216;28;902;-62
2021/10/17 11:14:59;;;;;;;;;;;;;;;13.04;67.26;100060.41;5013344;28;1942;-62
2021/10/17 11:17:28;;;;;;;;;;;;;;;13.05;66.52;100075.06;5013574;28;951;-62
2021/10/17 11:19:55;;;;;;;;;;;;;;;13.03;66.82;100077.44;5013226;28;838;-62
2021/10/17 11:22:21;;;;;;;;;;;;;;;13.04;67.52;100090.13;4995515;28;1165;-62
2021/10/17 11:24:52;;;;;;;;;;;;;;;13.01;67.17;100075.06;5013114;28;787;-62
2021/10/17 11:27:19;;;;;;;;;;;;;;;13.02;67.46;100078.66;5013280;28;799;-62
2021/10/17 11:29:46;;;;;;;;;;;;;;;13.04;66.66;100079.81;5012923;28;890;-62
2021/10/17 11:32:17;;;;;;;;;;;;;;;13.07;66.58;100073.44;5013068;28;807;-62
2021/10/17 11:34:59;;;;;;;;;;;;;;;13.17;66.43;100082.06;5012812;28;1969;-62
2021/10/17 11:37:26;;;;;;;;;;;;;;;13.03;66.16;100078.22;5012830;28;870;-62
2021/10/17 11:39:57;;;;;;;;;;;;;;;13.03;67.05;100081.00;5012882;28;822;-62
2021/10/17 11:42:28;;;;;;;;;;;;;;;13.05;66.73;100081.38;5012728;28;815;-62
2021/10/17 11:44:57;;;;;;;;;;;;;;;13.06;65.95;100087.75;5013004;28;902;-62
2021/10/17 11:47:24;;;;;;;;;;;;;;;13.01;65.82;100093.72;5012740;28;841;-62
2021/10/17 11:49:51;;;;;;;;;;;;;;;13.03;66.10;100089.34;5012668;28;914;-62
2021/10/17 11:52:18;;;;;;;;;;;;;;;13.03;66.01;100089.34;5012147;28;862;-62
2021/10/17 11:54:46;;;;;;;;;;;;;;;13.05;65.31;100088.94;5012041;28;1973;-62
2021/10/17 11:57:31;;;;;;;;;;;;;;;13.06;66.17;100093.28;5012481;28;792;-62
2021/10/17 11:59:59;;;;;;;;;;;;;;;13.22;65.63;100089.94;5012470;28;799;-62
2021/10/17 12:02:32;;;;;;;;;;;;;;;13.17;65.69;100085.63;5012487;28;862;-61
2021/10/17 12:04:59;;;;;;;;;;;;;;;13.19;65.21;100085.22;5012794;28;815;-62
2021/10/17 12:07:25;;;;;;;;;;;;;;;13.22;64.40;100085.16;5012633;28;874;-63
2021/10/17 12:09:52;;;;;;;;;;;;;;;13.26;65.19;100088.69;5012334;28;843;-62
2021/10/17 12:12:22;;;;;;;;;;;;;;;13.16;64.94;100100.69;5012293;28;819;-62
2021/10/17 12:15:05;;;;;;;;;;;;;;;13.10;65.59;100101.56;5012325;28;1981;-62
2021/10/17 12:17:32;;;;;;;;;;;;;;;13.11;65.97;100092.03;5012465;28;1326;-62
2021/10/17 12:20:02;;;;;;;;;;;;;;;13.28;65.90;100096.63;5012161;28;874;-62
2021/10/17 12:22:29;;;;;;;;;;;;;;;13.29;65.18;100092.66;5012194;28;894;-62
2021/10/17 12:24:59;;;;;;;;;;;;;;;13.27;66.01;100097.78;5012240;28;858;-62
2021/10/17 12:27:33;;;;;;;;;;;;;;;13.40;65.63;100090.56;5012096;28;802;-62
2021/10/17 12:30:28;;;;;;;;;;;;;;;13.39;65.52;100093.75;4994347;28;1516;-62
2021/10/17 12:32:57;;;;;;;;;;;;;;;13.48;65.54;100099.56;5010349;28;1067;-62
2021/10/17 12:35:36;;;;;;;;;;;;;;;13.47;65.85;100098.00;5011908;28;1983;-62
2021/10/17 12:38:13;;;;;;;;;;;;;;;13.42;65.82;100115.09;5011898;28;847;-63
2021/10/17 12:41:13;;;;;;;;;;;;;;;13.38;65.69;100103.28;5011686;28;815;-62
2021/10/17 12:43:45;;;;;;;;;;;;;;;13.19;66.30;100112.97;5000596;28;1281;-62
2021/10/17 12:46:16;;;;;;;;;;;;;;;13.14;66.94;100114.19;5011752;28;834;-62
2021/10/17 12:48:44;;;;;;;;;;;;;;;13.13;66.88;100118.19;5012118;28;857;-62
2021/10/17 12:51:32;;;;;;;;;;;;;;;13.08;66.92;100122.19;5011891;28;874;-62
2021/10/17 12:54:17;;;;;;;;;;;;;;;12.83;67.38;100122.44;5011598;28;2006;-62
2021/10/17 12:56:56;;;;;;;;;;;;;;;12.74;67.50;100122.13;5011764;28;878;-62
2021/10/17 12:59:23;;;;;;;;;;;;;;;12.54;67.57;100132.19;5011593;28;1066;-62
2021/10/17 13:02:03;;;;;;;;;;;;;;;12.50;67.91;100126.66;5011706;28;839;-61
2021/10/17 13:04:45;;;;;;;;;;;;;;;12.50;67.64;100136.97;5013183;28;862;-62
2021/10/17 13:07:13;;;;;;;;;;;;;;;12.57;67.64;100129.38;5015720;28;850;-61
2021/10/17 13:09:45;;;;;;;;;;;;;;;12.65;67.28;100127.34;5015485;28;909;-61
2021/10/17 13:12:14;;;;;;;;;;;;;;;12.54;67.06;100127.41;5015794;28;823;-62
2021/10/17 13:15:01;;;;;;;;;;;;;;;12.51;67.62;100133.00;5015456;28;2033;-62
2021/10/17 13:17:28;;;;;;;;;;;;;;;12.74;67.69;100127.66;5005390;28;1212;-62